Time;durP1;ratioP1;P1;durP2;ratioP2;P2;SDS_P1;SDS_P2;PMS_P1;PMS_P2;Temp;Humidity;BMP_temperature;BMP_pressure;BME280_temperature;BME280_humidity;BME280_pressure;Samples;Min_cycle;Max_cycle;Signal;HPM_P1;HPM_P2
2023/01/01 00:00:09;;;;;;;12.18;7.97;;;14.50;99.90;;;;;;6276390;22;20304;-81
2023/01/01 00:02:38;;;;;;;12.15;8.30;;;14.50;99.90;;;;;;6277357;22;20048;-81
2023/01/01 00:05:05;;;;;;;15.60;6.93;;;14.60;99.90;;;;;;6301203;22;20007;-81
2023/01/01 00:07:31;;;;;;;10.45;5.95;;;14.60;99.90;;;;;;6276241;22;20427;-82
2023/01/01 00:12:40;;;;;;;10.95;5.22;;;14.50;99.90;;;;;;6275189;22;20432;-81
2023/01/01 00:15:06;;;;;;;14.55;4.85;;;14.50;99.90;;;;;;6301203;22;20082;-81
2023/01/01 00:17:32;;;;;;;13.50;5.80;;;14.70;99.90;;;;;;6249928;22;20064;-81
2023/01/01 00:19:58;;;;;;;9.43;5.00;;;14.70;99.90;;;;;;6303166;22;20086;-82
2023/01/01 00:22:25;;;;;;;8.05;3.92;;;14.70;99.90;;;;;;6275786;22;20060;-82
2023/01/01 00:24:50;;;;;;;14.40;4.47;;;14.60;99.90;;;;;;6250129;22;20007;-80
2023/01/01 00:27:16;;;;;;;9.13;3.85;;;14.70;99.90;;;;;;6275364;22;20026;-82
2023/01/01 00:29:42;;;;;;;11.82;4.80;;;14.70;99.90;;;;;;6250111;22;20018;-82
2023/01/01 00:32:07;;;;;;;11.60;4.53;;;14.90;99.90;;;;;;6275263;22;20454;-80
2023/01/01 00:34:34;;;;;;;8.40;4.30;;;14.90;99.90;;;;;;6301419;22;20377;-81
2023/01/01 00:37:00;;;;;;;9.57;3.90;;;14.90;99.90;;;;;;6275456;22;20031;-82
2023/01/01 00:39:26;;;;;;;7.70;2.97;;;14.70;99.90;;;;;;6303012;22;20446;-80
2023/01/01 00:41:51;;;;;;;9.75;3.22;;;14.70;99.90;;;;;;6274123;22;20443;-80
2023/01/01 00:44:17;;;;;;;7.88;3.33;;;14.90;99.90;;;;;;6275903;22;20034;-81
2023/01/01 00:46:43;;;;;;;12.40;2.70;;;14.90;99.90;;;;;;6275559;22;20000;-80
2023/01/01 00:49:08;;;;;;;7.47;2.20;;;14.90;99.90;;;;;;6275070;22;20396;-81
2023/01/01 00:51:34;;;;;;;7.22;2.28;;;14.90;99.90;;;;;;6302932;22;20023;-81
2023/01/01 00:54:00;;;;;;;5.47;1.80;;;14.80;99.90;;;;;;6274889;22;20019;-81
2023/01/01 00:56:25;;;;;;;5.40;1.63;;;14.50;99.90;;;;;;6302077;22;20083;-82
2023/01/01 00:58:51;;;;;;;7.07;1.73;;;14.60;99.90;;;;;;6275001;22;20007;-81
2023/01/01 01:01:16;;;;;;;7.45;1.75;;;14.70;99.90;;;;;;6275728;22;20011;-82
2023/01/01 01:03:42;;;;;;;11.93;1.25;;;14.60;99.90;;;;;;6275910;22;20002;-81
2023/01/01 01:06:11;;;;;;;4.47;1.17;;;14.60;99.90;;;;;;6274954;22;20045;-82
2023/01/01 01:08:40;;;;;;;5.57;1.07;;;14.50;99.90;;;;;;6303015;22;20467;-82
2023/01/01 01:11:10;;;;;;;7.40;1.07;;;14.50;99.90;;;;;;6274527;22;20007;-82
2023/01/01 01:13:37;;;;;;;4.53;0.70;;;14.60;99.90;;;;;;6302671;22;20007;-81
2023/01/01 01:16:18;;;;;;;7.57;1.02;;;14.50;99.90;;;;;;6275107;22;20010;-82
2023/01/01 01:18:44;;;;;;;5.03;1.00;;;14.50;99.90;;;;;;6275276;22;20427;-82
2023/01/01 01:21:14;;;;;;;4.93;1.10;;;14.50;99.90;;;;;;6275232;22;20027;-80
2023/01/01 01:23:40;;;;;;;;;;;14.60;99.90;;;;;;6276509;22;20003;-82
2023/01/01 01:26:10;;;;;;;8.00;0.85;;;14.60;99.90;;;;;;6302124;22;19937;-82
2023/01/01 01:28:36;;;;;;;5.80;0.93;;;14.70;99.90;;;;;;6275142;22;20019;-81
2023/01/01 01:31:02;;;;;;;6.25;1.08;;;14.90;99.90;;;;;;6274995;22;20090;-82
2023/01/01 01:33:27;;;;;;;4.07;0.90;;;14.90;99.90;;;;;;6302695;22;20395;-80
2023/01/01 01:35:53;;;;;;;7.35;1.08;;;14.80;99.90;;;;;;6275159;22;20007;-80
2023/01/01 01:38:19;;;;;;;4.57;0.60;;;14.90;99.90;;;;;;6302765;22;20375;-82
2023/01/01 01:40:44;;;;;;;5.40;0.95;;;14.90;99.90;;;;;;6274852;22;20015;-82
2023/01/01 01:43:22;;;;;;;5.50;1.10;;;14.80;99.90;;;;;;6302467;22;19999;-80
2023/01/01 01:45:48;;;;;;;5.63;0.60;;;14.90;99.90;;;;;;6249450;22;20015;-81
2023/01/01 01:48:15;;;;;;;7.78;0.70;;;15.10;99.90;;;;;;6275014;22;20053;-80
2023/01/01 01:50:46;;;;;;;2.85;0.50;;;15.20;99.90;;;;;;6275693;22;20098;-83
2023/01/01 01:53:25;;;;;;;3.80;0.50;;;14.90;99.90;;;;;;6274184;22;20324;-84
2023/01/01 01:56:00;;;;;;;8.38;0.60;;;14.90;99.90;;;;;;6249553;22;20011;-82
2023/01/01 01:58:28;;;;;;;3.60;0.70;;;15.00;99.90;;;;;;6303345;22;20078;-79
2023/01/01 02:00:54;;;;;;;3.17;0.60;;;14.90;99.90;;;;;;6277116;22;20055;-82
2023/01/01 02:03:31;;;;;;;4.65;0.50;;;15.00;99.90;;;;;;6304949;22;20003;-82
2023/01/01 02:05:58;;;;;;;4.50;0.57;;;14.90;99.90;;;;;;6277074;22;20339;-83
2023/01/01 02:08:25;;;;;;;3.45;0.50;;;14.80;99.90;;;;;;6276945;22;20004;-81
2023/01/01 02:10:51;;;;;;;4.13;0.50;;;14.80;99.90;;;;;;6251318;22;20011;-80
2023/01/01 02:13:17;;;;;;;3.05;0.40;;;14.90;99.90;;;;;;6276986;22;19999;-82
2023/01/01 02:15:59;;;;;;;4.70;1.05;;;14.90;99.90;;;;;;6277346;22;20003;-83
2023/01/01 02:18:38;;;;;;;4.22;0.60;;;15.10;99.90;;;;;;6304617;22;20082;-82
2023/01/01 02:21:13;;;;;;;2.85;0.50;;;14.90;99.90;;;;;;6277407;22;20060;-81
2023/01/01 02:23:38;;;;;;;2.85;0.50;;;14.80;99.90;;;;;;6275977;22;20087;-84
2023/01/01 02:26:04;;;;;;;6.45;0.85;;;14.80;99.90;;;;;;6251346;22;20042;-82
2023/01/01 02:28:42;;;;;;;4.88;0.75;;;14.70;99.90;;;;;;6276985;22;20076;-83
2023/01/01 02:31:12;;;;;;;4.40;0.55;;;14.60;99.90;;;;;;6276224;22;20053;-82
2023/01/01 02:33:40;;;;;;;4.60;0.47;;;14.50;99.90;;;;;;6276777;22;20179;-82
2023/01/01 02:36:08;;;;;;;2.10;0.40;;;14.30;99.90;;;;;;6301737;22;20029;-81
2023/01/01 02:38:40;;;;;;;6.97;0.40;;;14.30;99.90;;;;;;6248577;22;20424;-84
2023/01/01 02:41:46;;;;;;;2.35;0.40;;;14.20;99.90;;;;;;6274630;22;20003;-84
2023/01/01 02:44:12;;;;;;;2.53;0.40;;;14.20;99.90;;;;;;6275404;22;20007;-83
2023/01/01 02:46:37;;;;;;;2.33;0.40;;;14.20;99.90;;;;;;6276148;22;20042;-82
2023/01/01 02:49:04;;;;;;;3.00;0.40;;;14.10;99.90;;;;;;6274384;22;20359;-83
2023/01/01 02:51:42;;;;;;;5.25;0.50;;;14.10;99.90;;;;;;6301611;22;20092;-81
2023/01/01 02:54:13;;;;;;;3.97;0.57;;;14.20;99.90;;;;;;6248597;22;20034;-84
2023/01/01 02:57:10;;;;;;;3.00;0.52;;;14.30;99.90;;;;;;6274498;22;20003;-81
2023/01/01 03:03:10;;;;;;;2.72;0.43;;;14.20;99.90;;;;;;6275372;22;20347;-82
2023/01/01 03:06:21;;;;;;;3.88;0.50;;;14.10;99.90;;;;;;6276847;22;20068;-82
2023/01/01 03:08:32;;;;;;;5.03;0.40;;;14.00;99.90;;;;;;6303483;22;20039;-83
2023/01/01 03:11:07;;;;;;;4.90;0.63;;;14.10;99.90;;;;;;6302403;22;20008;-82
2023/01/01 03:13:46;;;;;;;3.03;0.57;;;14.00;99.90;;;;;;6304408;22;20030;-82
2023/01/01 03:16:31;;;;;;;2.65;0.40;;;14.00;99.90;;;;;;6276322;22;20007;-83
2023/01/01 03:19:12;;;;;;;4.13;0.45;;;14.10;99.90;;;;;;6276628;22;20090;-82
2023/01/01 03:21:50;;;;;;;3.45;0.60;;;14.00;99.90;;;;;;6276171;22;20015;-84
2023/01/01 03:24:45;;;;;;;1.92;0.35;;;14.00;99.90;;;;;;6250727;22;20027;-83
2023/01/01 03:27:35;;;;;;;1.58;0.30;;;13.90;99.90;;;;;;6301408;22;20022;-83
2023/01/01 03:30:07;;;;;;;1.80;0.35;;;13.90;99.90;;;;;;6274114;22;20016;-83
2023/01/01 03:32:59;;;;;;;3.72;0.30;;;13.80;99.90;;;;;;6248945;22;20073;-83
2023/01/01 03:35:53;;;;;;;4.53;0.52;;;13.80;99.90;;;;;;6299842;22;20011;-82
2023/01/01 03:38:33;;;;;;;2.03;0.20;;;13.80;99.90;;;;;;6299751;22;20014;-81
2023/01/01 03:41:35;;;;;;;3.67;0.30;;;13.70;99.90;;;;;;6248318;22;20018;-82
2023/01/01 03:44:12;;;;;;;5.40;0.40;;;13.70;99.90;;;;;;6275040;22;20246;-83
2023/01/01 03:46:38;;;;;;;1.73;0.30;;;13.60;99.90;;;;;;6251048;22;20363;-82
2023/01/01 03:49:06;;;;;;;2.47;0.30;;;13.50;99.90;;;;;;6303007;22;20025;-82
2023/01/01 03:52:03;;;;;;;2.65;0.40;;;13.80;99.90;;;;;;6276371;22;20007;-82
2023/01/01 03:54:51;;;;;;;1.88;0.40;;;13.70;99.90;;;;;;6250574;22;20165;-83
2023/01/01 03:57:51;;;;;;;3.55;0.60;;;13.70;99.90;;;;;;6302221;22;20007;-81
2023/01/01 04:00:20;;;;;;;2.28;0.40;;;13.80;99.90;;;;;;6303675;22;20018;-84
2023/01/01 04:02:51;;;;;;;2.92;0.32;;;13.80;99.90;;;;;;6250670;22;20091;-83
2023/01/01 04:05:18;;;;;;;2.38;0.30;;;13.80;99.90;;;;;;6303072;22;20030;-81
2023/01/01 04:07:45;;;;;;;2.75;0.70;;;13.80;99.90;;;;;;6276205;22;19999;-83
2023/01/01 04:10:17;;;;;;;1.95;0.30;;;14.00;99.90;;;;;;6302803;22;20017;-81
2023/01/01 04:13:03;;;;;;;3.92;0.30;;;14.00;99.90;;;;;;6250724;22;20495;-82
2023/01/01 04:15:30;;;;;;;2.88;0.30;;;14.00;99.90;;;;;;6275757;22;20044;-82
2023/01/01 04:17:56;;;;;;;3.72;0.40;;;14.00;99.90;;;;;;6275353;22;20329;-83
2023/01/01 04:20:23;;;;;;;2.60;0.20;;;14.00;99.90;;;;;;6303532;22;20132;-81
2023/01/01 04:22:48;;;;;;;2.15;0.30;;;14.00;99.90;;;;;;6274944;22;20078;-83
2023/01/01 04:25:16;;;;;;;1.08;0.20;;;14.00;99.90;;;;;;6275664;22;20031;-82
2023/01/01 04:27:42;;;;;;;2.78;0.22;;;14.00;99.90;;;;;;6303515;22;20049;-82
2023/01/01 04:30:11;;;;;;;1.77;0.30;;;14.00;99.90;;;;;;6249870;22;20026;-81
2023/01/01 04:32:37;;;;;;;1.47;0.27;;;14.00;99.90;;;;;;6248810;22;20007;-82
2023/01/01 04:35:04;;;;;;;2.25;0.30;;;14.00;99.90;;;;;;6302860;22;20026;-83
2023/01/01 04:37:30;;;;;;;1.45;0.28;;;14.00;99.90;;;;;;6250550;22;20007;-83
2023/01/01 04:39:56;;;;;;;2.55;0.20;;;13.90;99.90;;;;;;6275608;22;20006;-83
2023/01/01 04:42:21;;;;;;;2.35;0.20;;;13.90;99.90;;;;;;6303432;22;20003;-83
2023/01/01 04:44:47;;;;;;;3.10;0.30;;;14.10;99.90;;;;;;6275466;22;20061;-81
2023/01/01 04:47:13;;;;;;;2.50;0.35;;;14.00;99.90;;;;;;6301101;22;20007;-83
2023/01/01 04:49:38;;;;;;;4.07;0.30;;;14.10;99.90;;;;;;6276273;22;20015;-82
2023/01/01 04:52:04;;;;;;;2.95;0.30;;;14.10;99.90;;;;;;6303097;22;20363;-82
2023/01/01 04:54:30;;;;;;;2.60;0.22;;;14.10;99.90;;;;;;6274336;22;20336;-82
2023/01/01 04:56:56;;;;;;;2.25;0.30;;;14.10;99.90;;;;;;6249864;22;20010;-83
2023/01/01 04:59:21;;;;;;;2.60;0.25;;;14.00;99.90;;;;;;6275940;22;20003;-81
2023/01/01 05:01:47;;;;;;;3.05;0.35;;;14.00;99.90;;;;;;6300984;22;20420;-83
2023/01/01 05:04:14;;;;;;;3.53;0.40;;;14.10;99.90;;;;;;6303773;22;20022;-83
2023/01/01 05:06:40;;;;;;;5.32;0.50;;;14.10;99.90;;;;;;6275836;22;20007;-80
2023/01/01 05:09:07;;;;;;;3.67;0.30;;;14.10;99.90;;;;;;6275182;22;20014;-81
2023/01/01 05:11:33;;;;;;;1.83;0.20;;;14.10;99.90;;;;;;6275955;22;20039;-84
2023/01/01 05:14:00;;;;;;;2.58;0.30;;;14.00;99.90;;;;;;6275207;22;20056;-82
2023/01/01 05:16:29;;;;;;;3.38;0.30;;;14.00;99.90;;;;;;6250036;22;20010;-84
2023/01/01 05:18:55;;;;;;;5.05;0.30;;;14.10;99.90;;;;;;6275793;22;20083;-81
2023/01/01 05:21:32;;;;;;;2.15;0.30;;;14.00;99.90;;;;;;6303286;22;20013;-83
2023/01/01 05:24:00;;;;;;;2.63;0.30;;;14.10;99.90;;;;;;6275247;22;20012;-83
2023/01/01 05:26:29;;;;;;;2.45;0.28;;;14.00;99.90;;;;;;6275611;22;20347;-83
2023/01/01 05:28:55;;;;;;;2.88;0.30;;;14.00;99.90;;;;;;6275621;22;20019;-82
2023/01/01 05:31:23;;;;;;;3.03;0.30;;;14.10;99.90;;;;;;6302605;22;20369;-84
2023/01/01 05:33:51;;;;;;;3.45;0.28;;;14.10;99.90;;;;;;6251511;22;20053;-84
2023/01/01 05:36:22;;;;;;;3.65;0.30;;;14.00;99.90;;;;;;6279403;22;20013;-82
2023/01/01 05:38:48;;;;;;;3.15;0.30;;;14.20;99.90;;;;;;6253513;22;20022;-83
2023/01/01 05:41:15;;;;;;;3.50;0.38;;;14.00;99.90;;;;;;6278936;22;20420;-84
2023/01/01 05:43:41;;;;;;;3.72;0.30;;;14.00;99.90;;;;;;6253954;22;20015;-84
2023/01/01 05:46:11;;;;;;;3.72;0.30;;;13.80;99.90;;;;;;6252837;22;20025;-82
2023/01/01 05:48:38;;;;;;;2.58;0.32;;;13.80;99.90;;;;;;6278856;22;20463;-82
2023/01/01 05:51:24;;;;;;;4.35;0.52;;;13.90;99.90;;;;;;6253573;22;19999;-83
2023/01/01 05:53:50;;;;;;;2.63;0.40;;;13.90;99.90;;;;;;6242850;22;20012;-81
2023/01/01 05:56:16;;;;;;;1.92;0.30;;;14.00;99.90;;;;;;6248363;22;20018;-84
2023/01/01 05:58:43;;;;;;;2.58;0.40;;;13.90;99.90;;;;;;6275494;22;20000;-84
2023/01/01 06:01:11;;;;;;;5.38;0.40;;;13.90;99.90;;;;;;6247363;22;20007;-84
2023/01/01 06:03:38;;;;;;;4.05;0.40;;;13.90;99.90;;;;;;6223563;22;20046;-84
2023/01/01 06:06:09;;;;;;;2.42;0.30;;;13.80;99.90;;;;;;6247975;22;20492;-84
2023/01/01 06:08:35;;;;;;;2.83;0.30;;;13.60;99.90;;;;;;6273964;22;20008;-84
2023/01/01 06:11:03;;;;;;;3.50;0.35;;;13.70;99.90;;;;;;6247757;22;20019;-84
2023/01/01 06:13:29;;;;;;;2.78;0.40;;;13.80;99.90;;;;;;6248009;22;20004;-82
2023/01/01 06:15:56;;;;;;;4.22;0.50;;;13.80;99.90;;;;;;6247283;22;20008;-82
2023/01/01 06:18:22;;;;;;;2.28;0.28;;;13.80;99.90;;;;;;6248362;22;20061;-83
2023/01/01 06:20:48;;;;;;;3.83;0.40;;;13.80;99.90;;;;;;6275851;22;20198;-82
2023/01/01 06:23:14;;;;;;;2.38;0.50;;;13.80;99.90;;;;;;6275324;22;20003;-83
2023/01/01 06:25:40;;;;;;;1.80;0.20;;;13.80;99.90;;;;;;6223093;22;20010;-82
2023/01/01 06:28:05;;;;;;;5.45;0.43;;;13.70;99.90;;;;;;6247744;22;20134;-83
2023/01/01 06:30:33;;;;;;;3.13;0.28;;;13.80;99.90;;;;;;6273338;22;20149;-83
2023/01/01 06:32:59;;;;;;;4.05;0.38;;;13.70;99.90;;;;;;6273905;22;20007;-82
2023/01/01 06:35:25;;;;;;;2.47;0.65;;;13.70;99.90;;;;;;6273305;22;20475;-83
2023/01/01 06:37:51;;;;;;;3.33;0.38;;;13.70;99.90;;;;;;6275178;22;20015;-84
2023/01/01 06:40:17;;;;;;;4.47;0.30;;;13.60;99.90;;;;;;6275425;22;20011;-84
2023/01/01 06:42:42;;;;;;;6.68;0.40;;;13.70;99.90;;;;;;6247458;22;20498;-84
2023/01/01 06:45:08;;;;;;;3.60;0.40;;;13.60;99.90;;;;;;6246587;22;20431;-83
2023/01/01 06:47:35;;;;;;;2.55;0.20;;;13.50;99.90;;;;;;6246533;22;20012;-82
2023/01/01 06:50:03;;;;;;;1.77;0.20;;;13.40;99.90;;;;;;6271995;22;20448;-83
2023/01/01 06:52:29;;;;;;;4.63;0.40;;;13.30;99.90;;;;;;6272518;22;20050;-81
2023/01/01 06:54:54;;;;;;;5.72;0.30;;;13.40;99.90;;;;;;6271208;22;20020;-84
2023/01/01 06:57:20;;;;;;;3.25;0.30;;;13.40;99.90;;;;;;6220359;22;20349;-81
2023/01/01 06:59:45;;;;;;;1.63;0.28;;;13.60;99.90;;;;;;6220563;22;20014;-84
2023/01/01 07:02:11;;;;;;;3.35;0.20;;;13.50;99.90;;;;;;6220709;22;20034;-83
2023/01/01 07:04:38;;;;;;;2.22;0.20;;;13.50;99.90;;;;;;6218520;22;20039;-82
2023/01/01 07:07:04;;;;;;;4.82;0.20;;;13.50;99.90;;;;;;6271435;22;20007;-82
2023/01/01 07:09:29;;;;;;;3.05;0.30;;;13.40;99.90;;;;;;6246480;22;20454;-82
2023/01/01 07:11:55;;;;;;;2.25;0.13;;;13.30;99.90;;;;;;6244959;22;20020;-84
2023/01/01 07:14:21;;;;;;;2.17;0.10;;;13.20;99.90;;;;;;6245627;22;20027;-84
2023/01/01 07:16:46;;;;;;;1.45;0.10;;;13.20;99.90;;;;;;6220770;22;20011;-84
2023/01/01 07:19:12;;;;;;;1.10;0.17;;;13.10;99.90;;;;;;6272443;22;20341;-85
2023/01/01 07:21:51;;;;;;;0.82;0.08;;;13.10;99.90;;;;;;6246710;22;20008;-85
2023/01/01 07:24:17;;;;;;;1.15;0.10;;;12.90;99.90;;;;;;6246771;22;20012;-85
2023/01/01 07:26:43;;;;;;;2.45;0.20;;;12.90;99.90;;;;;;6220266;22;20027;-85
2023/01/01 07:29:09;;;;;;;1.73;0.17;;;12.90;99.90;;;;;;6220318;22;20483;-83
2023/01/01 07:31:37;;;;;;;2.58;0.30;;;12.70;99.90;;;;;;6221444;22;20007;-84
2023/01/01 07:34:04;;;;;;;2.78;0.28;;;12.80;99.90;;;;;;6245157;22;20014;-84
2023/01/01 07:36:30;;;;;;;2.47;0.10;;;12.70;99.90;;;;;;6272833;22;20007;-82
2023/01/01 07:38:56;;;;;;;2.10;0.30;;;12.60;99.90;;;;;;6220360;22;20008;-82
2023/01/01 07:41:21;;;;;;;2.55;0.20;;;12.40;99.90;;;;;;6245177;22;20333;-83
2023/01/01 07:43:47;;;;;;;1.42;0.13;;;12.40;99.90;;;;;;6245474;22;20014;-81
2023/01/01 07:46:15;;;;;;;1.70;0.17;;;12.30;99.90;;;;;;6272760;22;20030;-81
2023/01/01 07:48:41;;;;;;;3.60;0.20;;;12.10;99.90;;;;;;6245480;22;20012;-82
2023/01/01 07:51:07;;;;;;;1.42;0.20;;;12.00;99.90;;;;;;6220075;22;20578;-83
2023/01/01 07:53:33;;;;;;;2.13;0.20;;;11.90;99.90;;;;;;6272779;22;20031;-83
2023/01/01 07:55:59;;;;;;;0.88;0.10;;;11.90;99.90;;;;;;6244679;22;20039;-84
2023/01/01 07:58:24;;;;;;;2.08;0.15;;;11.80;99.90;;;;;;6245740;22;20015;-83
2023/01/01 08:00:50;;;;;;;3.30;0.20;;;11.70;99.90;;;;;;6272123;22;20007;-84
2023/01/01 08:03:16;;;;;;;0.73;0.10;;;11.70;99.90;;;;;;6219910;22;20011;-84
2023/01/01 08:05:42;;;;;;;2.17;0.20;;;11.50;99.90;;;;;;6220415;22;20268;-84
2023/01/01 08:08:09;;;;;;;1.35;0.17;;;11.50;99.90;;;;;;6272655;22;20004;-83
2023/01/01 08:10:35;;;;;;;1.60;0.10;;;11.40;99.90;;;;;;6244947;22;20535;-82
2023/01/01 08:13:03;;;;;;;2.08;0.15;;;11.40;99.90;;;;;;6219890;22;20091;-83
2023/01/01 08:15:29;;;;;;;2.85;0.10;;;11.30;99.90;;;;;;6245472;22;20063;-84
2023/01/01 08:17:56;;;;;;;2.35;0.10;;;11.30;99.90;;;;;;6219802;22;20010;-84
2023/01/01 08:20:22;;;;;;;0.75;0.10;;;11.30;99.90;;;;;;6272478;22;20000;-81
2023/01/01 08:22:48;;;;;;;1.13;0.10;;;11.30;99.90;;;;;;6271444;22;20010;-83
2023/01/01 08:25:13;;;;;;;4.50;0.22;;;11.30;99.90;;;;;;6244772;22;20008;-82
2023/01/01 08:27:39;;;;;;;2.53;0.17;;;11.30;99.90;;;;;;6270188;22;20413;-82
2023/01/01 08:30:05;;;;;;;0.75;0.10;;;11.30;99.90;;;;;;6271142;22;20015;-81
2023/01/01 08:32:31;;;;;;;1.08;0.10;;;11.40;99.90;;;;;;6243777;22;20027;-83
2023/01/01 08:34:57;;;;;;;2.42;0.10;;;11.30;99.90;;;;;;6244340;22;20011;-83
2023/01/01 08:37:23;;;;;;;1.55;0.10;;;11.30;99.90;;;;;;6243952;22;20027;-82
2023/01/01 08:39:50;;;;;;;1.33;0.20;;;11.20;99.90;;;;;;6242693;22;20014;-82
2023/01/01 08:42:16;;;;;;;0.98;0.10;;;11.30;99.90;;;;;;6219684;22;20004;-83
2023/01/01 08:44:42;;;;;;;0.70;0.10;;;11.30;99.90;;;;;;6219721;22;20008;-82
2023/01/01 08:47:19;;;;;;;1.52;0.40;;;11.20;99.90;;;;;;6269745;22;20014;-82
2023/01/01 08:49:45;;;;;;;0.75;0.10;;;11.30;99.90;;;;;;6233952;22;20069;-82
2023/01/01 08:52:11;;;;;;;2.70;0.20;;;11.30;99.90;;;;;;6244785;22;20111;-82
2023/01/01 08:54:36;;;;;;;3.17;0.20;;;11.20;99.90;;;;;;6290581;22;20011;-82
2023/01/01 08:57:02;;;;;;;1.50;0.20;;;11.20;99.90;;;;;;6302318;22;19995;-82
2023/01/01 08:59:27;;;;;;;1.40;0.30;;;11.30;99.90;;;;;;6249662;22;20019;-82
2023/01/01 09:01:53;;;;;;;1.83;0.20;;;11.20;99.90;;;;;;6275232;22;20003;-82
2023/01/01 09:04:19;;;;;;;1.48;0.10;;;11.30;99.90;;;;;;6301157;22;20012;-82
2023/01/01 09:06:44;;;;;;;2.13;0.30;;;11.20;99.90;;;;;;6275392;22;19999;-81
2023/01/01 09:09:10;;;;;;;2.67;0.30;;;11.20;99.90;;;;;;6248594;22;20443;-82
2023/01/01 09:11:36;;;;;;;2.63;0.20;;;11.20;99.90;;;;;;6275339;22;20012;-82
2023/01/01 09:14:01;;;;;;;3.65;0.22;;;11.20;99.90;;;;;;6274843;22;20519;-83
2023/01/01 09:16:27;;;;;;;0.75;0.13;;;11.20;99.90;;;;;;6249360;22;20011;-82
2023/01/01 09:18:53;;;;;;;5.07;0.30;;;11.20;99.90;;;;;;6301278;22;20014;-82
2023/01/01 09:21:19;;;;;;;3.28;0.30;;;11.30;99.90;;;;;;6275405;22;20030;-83
2023/01/01 09:23:44;;;;;;;1.58;0.30;;;11.30;99.90;;;;;;6248964;22;20101;-82
2023/01/01 09:26:10;;;;;;;3.17;0.20;;;11.30;99.90;;;;;;6249359;22;20045;-81
2023/01/01 09:28:36;;;;;;;3.15;0.20;;;11.30;99.90;;;;;;6274749;22;20010;-82
2023/01/01 09:31:05;;;;;;;3.40;0.20;;;11.30;99.90;;;;;;6248935;22;20043;-82
2023/01/01 09:33:31;;;;;;;2.00;0.20;;;11.30;99.90;;;;;;6275252;22;20014;-82
2023/01/01 09:36:28;;;;;;;5.88;0.20;;;11.30;99.90;;;;;;6274502;22;20007;-82
2023/01/01 09:38:55;;;;;;;2.55;0.20;;;11.30;99.90;;;;;;6249037;22;20110;-81
2023/01/01 09:41:47;;;;;;;2.55;0.20;;;11.20;99.90;;;;;;6249792;22;20098;-82
2023/01/01 09:44:48;;;;;;;2.40;0.20;;;11.20;99.90;;;;;;6249917;22;20100;-83
2023/01/01 09:47:41;;;;;;;1.02;0.10;;;11.30;99.90;;;;;;6275319;22;20011;-83
2023/01/01 09:50:17;;;;;;;2.17;0.20;;;11.30;99.90;;;;;;6177165;23;20017;-83
2023/01/01 09:52:51;;;;;;;5.63;0.20;;;11.30;99.90;;;;;;6128215;23;20009;-83
2023/01/01 09:55:27;;;;;;;2.97;0.10;;;11.40;99.90;;;;;;6128520;23;20390;-83
2023/01/01 09:57:54;;;;;;;1.05;0.10;;;11.40;99.90;;;;;;6176881;23;20009;-84
2023/01/01 10:00:20;;;;;;;1.38;0.30;;;11.40;99.90;;;;;;6153273;23;20012;-83
2023/01/01 10:03:17;;;;;;;1.85;0.20;;;11.40;99.90;;;;;;6128388;23;20093;-84
2023/01/01 10:06:05;;;;;;;2.00;0.20;;;11.40;99.90;;;;;;6152670;23;20005;-85
2023/01/01 10:08:43;;;;;;;2.13;0.20;;;11.40;99.90;;;;;;6152339;23;20001;-84
2023/01/01 10:11:20;;;;;;;2.85;0.10;;;11.40;99.90;;;;;;6152987;23;20412;-86
2023/01/01 10:13:46;;;;;;;2.42;0.25;;;11.40;99.90;;;;;;6177597;23;20013;-84
2023/01/01 10:16:39;;;;;;;0.85;0.20;;;11.30;99.90;;;;;;6126064;23;20101;-85
2023/01/01 10:19:29;;;;;;;2.63;0.20;;;11.30;99.90;;;;;;6152559;23;20363;-84
2023/01/01 10:21:56;;;;;;;;;;;11.30;99.90;;;;;;6154271;23;20013;-85
2023/01/01 10:24:43;;;;;;;2.25;0.38;;;11.20;99.90;;;;;;6154643;23;19911;-84
2023/01/01 10:27:23;;;;;;;3.15;0.22;;;11.20;99.90;;;;;;6219730;22;20043;-83
2023/01/01 10:29:51;;;;;;;3.22;0.20;;;11.10;99.90;;;;;;6250487;22;20023;-82
2023/01/01 10:32:22;;;;;;;2.63;0.30;;;11.10;99.90;;;;;;6250772;22;20061;-82
2023/01/01 10:34:50;;;;;;;3.15;0.20;;;11.10;99.90;;;;;;6276063;22;20033;-83
2023/01/01 10:37:16;;;;;;;3.88;0.20;;;11.20;99.90;;;;;;6249988;22;20003;-83
2023/01/01 10:39:43;;;;;;;3.72;0.43;;;11.10;99.90;;;;;;6276555;22;20015;-82
2023/01/01 10:42:14;;;;;;;4.78;0.40;;;11.00;99.90;;;;;;6276345;22;20477;-83
2023/01/01 10:44:41;;;;;;;3.95;0.30;;;11.00;99.90;;;;;;6276028;22;20015;-83
2023/01/01 10:47:20;;;;;;;4.43;0.40;;;11.00;99.90;;;;;;6275203;22;20065;-82
2023/01/01 10:49:57;;;;;;;3.53;0.30;;;11.00;99.90;;;;;;6273835;22;20011;-82
2023/01/01 10:52:30;;;;;;;4.05;0.20;;;11.00;99.90;;;;;;6249190;22;20316;-83
2023/01/01 10:54:57;;;;;;;2.35;0.20;;;11.00;99.90;;;;;;6301657;22;20336;-83
2023/01/01 10:57:34;;;;;;;1.65;0.30;;;11.00;99.90;;;;;;6274350;22;20018;-84
2023/01/01 11:00:21;;;;;;;1.88;0.20;;;11.00;99.90;;;;;;6264936;22;20376;-83
2023/01/01 11:02:47;;;;;;;4.68;0.32;;;11.00;99.90;;;;;;6274612;22;20038;-83
2023/01/01 11:05:19;;;;;;;2.75;0.30;;;11.10;99.90;;;;;;6300776;22;20078;-82
2023/01/01 11:07:45;;;;;;;2.53;0.20;;;11.10;99.90;;;;;;6247115;22;20454;-82
2023/01/01 11:10:19;;;;;;;1.15;0.10;;;11.20;99.90;;;;;;6246298;22;20046;-83
2023/01/01 11:12:46;;;;;;;1.40;0.10;;;11.40;99.90;;;;;;6272115;22;20058;-83
2023/01/01 11:15:38;;;;;;;1.45;0.20;;;11.60;99.90;;;;;;6246009;22;20462;-83
2023/01/01 11:18:19;;;;;;;2.75;0.10;;;11.90;99.90;;;;;;6271543;22;20011;-83
2023/01/01 11:20:56;;;;;;;2.88;0.20;;;12.10;99.90;;;;;;6245831;22;20015;-82
2023/01/01 11:23:35;;;;;;;2.92;0.40;;;12.00;99.90;;;;;;6297370;22;20500;-83
2023/01/01 11:26:15;;;;;;;3.30;0.30;;;11.80;99.90;;;;;;6245907;22;20568;-83
2023/01/01 11:28:41;;;;;;;2.83;0.30;;;11.80;99.90;;;;;;6297396;22;20035;-83
2023/01/01 11:31:17;;;;;;;1.42;0.30;;;11.90;99.90;;;;;;6273003;22;20539;-83
2023/01/01 11:33:48;;;;;;;4.35;0.80;;;11.80;99.90;;;;;;6272857;22;20093;-83
2023/01/01 11:36:24;;;;;;;2.65;0.50;;;11.80;99.90;;;;;;6274198;22;20014;-82
2023/01/01 11:39:10;;;;;;;3.50;0.50;;;11.80;99.90;;;;;;6300795;22;20015;-83
2023/01/01 11:41:45;;;;;;;6.07;0.40;;;11.80;99.90;;;;;;6248675;22;20004;-83
2023/01/01 11:44:21;;;;;;;1.77;0.30;;;11.90;99.90;;;;;;6247866;22;20018;-83
2023/01/01 11:46:47;;;;;;;1.27;0.20;;;11.90;99.90;;;;;;6248877;22;20086;-83
2023/01/01 11:49:22;;;;;;;1.48;0.35;;;11.90;99.90;;;;;;6248050;22;20096;-83
2023/01/01 11:51:48;;;;;;;2.97;0.40;;;11.90;99.90;;;;;;6274324;22;20448;-82
2023/01/01 11:54:44;;;;;;;1.20;0.40;;;11.90;99.90;;;;;;6274109;22;20065;-82
2023/01/01 11:57:17;;;;;;;1.80;0.57;;;12.00;99.90;;;;;;6256236;22;20019;-83
2023/01/01 11:59:52;;;;;;;2.30;0.40;;;12.00;99.90;;;;;;6274309;22;20007;-82
2023/01/01 12:02:33;;;;;;;3.13;0.40;;;12.00;99.90;;;;;;6301281;22;20004;-83
2023/01/01 12:05:14;;;;;;;1.63;0.35;;;12.00;99.90;;;;;;6273776;22;20007;-83
2023/01/01 12:07:41;;;;;;;2.90;0.40;;;11.90;99.90;;;;;;6299327;22;20035;-82
2023/01/01 12:10:36;;;;;;;2.15;0.40;;;11.90;99.90;;;;;;6273310;22;20034;-83
2023/01/01 12:13:16;;;;;;;3.00;0.50;;;12.00;99.90;;;;;;6300928;22;20015;-82
2023/01/01 12:16:05;;;;;;;3.13;0.60;;;12.00;99.90;;;;;;6301620;22;20015;-83
2023/01/01 12:18:56;;;;;;;1.85;0.40;;;12.10;99.90;;;;;;6247998;22;20017;-83
2023/01/01 12:21:25;;;;;;;2.28;0.50;;;12.10;99.90;;;;;;6273698;22;20014;-83
2023/01/01 12:23:51;;;;;;;3.63;0.60;;;12.20;99.90;;;;;;6273345;22;20057;-84
2023/01/01 12:26:43;;;;;;;2.72;0.40;;;12.20;99.90;;;;;;6301319;22;20023;-82
2023/01/01 12:29:32;;;;;;;2.42;0.57;;;12.20;99.90;;;;;;6300672;22;20003;-83
2023/01/01 12:32:20;;;;;;;1.73;0.50;;;12.20;99.90;;;;;;6246850;22;20015;-84
2023/01/01 12:35:10;;;;;;;2.63;0.50;;;12.30;99.90;;;;;;6299069;22;20367;-84
2023/01/01 12:37:45;;;;;;;;;;;12.30;99.90;;;;;;6274480;22;20446;-83
2023/01/01 12:40:10;;;;;;;3.60;0.50;;;12.30;99.90;;;;;;6247597;22;19906;-85
2023/01/01 12:43:01;;;;;;;1.80;0.50;;;12.30;99.90;;;;;;6246982;22;20007;-84
2023/01/01 12:46:15;;;;;;;3.42;0.40;;;12.40;99.90;;;;;;6247312;22;20427;-85
2023/01/01 12:49:02;;;;;;;3.38;0.40;;;12.40;99.90;;;;;;6147666;23;20468;-83
2023/01/01 12:51:27;;;;;;;4.10;0.50;;;12.60;99.90;;;;;;6121984;23;20009;-84
2023/01/01 12:54:17;;;;;;;5.45;0.93;;;12.60;99.90;;;;;;6146299;23;20012;-84
2023/01/01 12:56:59;;;;;;;5.50;0.60;;;12.70;99.90;;;;;;6123046;23;20532;-84
2023/01/01 12:59:34;;;;;;;5.57;1.27;;;12.70;99.90;;;;;;6122646;23;20013;-83
2023/01/01 13:02:09;;;;;;;4.57;0.65;;;12.80;99.90;;;;;;6145819;23;20032;-81
2023/01/01 13:04:37;;;;;;;3.35;0.73;;;12.80;99.90;;;;;;6122915;23;20351;-83
2023/01/01 13:07:08;;;;;;;4.88;0.60;;;12.80;99.90;;;;;;6171905;23;20009;-82
2023/01/01 13:09:40;;;;;;;3.10;0.40;;;12.70;99.90;;;;;;6122349;23;20017;-83
2023/01/01 13:12:14;;;;;;;3.58;0.50;;;12.70;99.90;;;;;;6171435;23;20008;-84
2023/01/01 13:14:45;;;;;;;5.75;0.40;;;12.70;99.90;;;;;;6171546;23;20033;-82